createdAt,value
2018-09-15T00:00:45.999Z,14.59
2018-09-15T00:01:46.267Z,14.73
2018-09-15T00:02:46.328Z,14.70
2018-09-15T00:03:46.515Z,14.73
2018-09-15T00:04:46.682Z,14.81
2018-09-15T00:05:46.866Z,14.82
2018-09-15T00:06:47.038Z,14.84
2018-09-15T00:07:47.216Z,14.91
2018-09-15T00:08:47.391Z,14.73
2018-09-15T00:09:47.577Z,14.65
2018-09-15T00:10:47.760Z,14.65
2018-09-15T00:11:47.938Z,14.63
2018-09-15T00:12:48.112Z,14.68
2018-09-15T00:13:48.293Z,14.72
2018-09-15T00:14:48.463Z,14.68
2018-09-15T00:15:48.644Z,14.69
2018-09-15T00:16:48.824Z,14.77
2018-09-15T00:17:49.058Z,14.63
2018-09-15T00:18:49.182Z,14.65
2018-09-15T00:19:49.363Z,14.59
2018-09-15T00:20:49.542Z,14.70
2018-09-15T00:21:49.713Z,14.84
2018-09-15T00:22:49.889Z,14.78
2018-09-15T00:23:50.066Z,14.62
2018-09-15T00:24:50.715Z,14.68
2018-09-15T00:25:52.871Z,14.62
2018-09-15T00:26:52.470Z,14.62
2018-09-15T00:27:52.574Z,14.73
2018-09-15T00:29:09.622Z,14.60
2018-09-15T00:29:52.189Z,14.65
2018-09-15T00:30:52.909Z,14.69
2018-09-15T00:31:51.467Z,14.69
2018-09-15T00:32:51.704Z,14.70
2018-09-15T00:33:51.634Z,14.81
2018-09-15T00:34:51.807Z,14.79
2018-09-15T00:35:51.990Z,14.78
2018-09-15T00:36:52.164Z,14.79
2018-09-15T00:37:52.346Z,14.62
2018-09-15T00:38:52.566Z,14.82
2018-09-15T00:39:52.700Z,14.69
2018-09-15T00:40:52.873Z,14.84
2018-09-15T00:41:53.147Z,14.81
2018-09-15T00:42:53.239Z,14.73
2018-09-15T00:43:53.411Z,14.85
2018-09-15T00:44:53.590Z,14.84
2018-09-15T00:45:53.761Z,14.85
2018-09-15T00:46:53.932Z,14.81
2018-09-15T00:47:54.115Z,14.88
2018-09-15T00:48:54.306Z,14.79
2018-09-15T00:49:54.489Z,14.86
2018-09-15T00:50:54.662Z,14.88
2018-09-15T00:51:54.849Z,14.89
2018-09-15T00:52:55.023Z,14.88
2018-09-15T00:53:55.196Z,14.88
2018-09-15T00:54:55.377Z,14.94
2018-09-15T00:55:55.552Z,14.99
2018-09-15T00:56:55.726Z,14.91
2018-09-15T00:57:55.901Z,15.00
2018-09-15T00:58:56.084Z,14.97
2018-09-15T00:59:56.261Z,14.94
2018-09-15T01:00:56.440Z,14.99
2018-09-15T01:01:56.613Z,15.00
2018-09-15T01:02:56.789Z,14.96
2018-09-15T01:03:56.968Z,14.94
2018-09-15T01:04:57.139Z,14.94
2018-09-15T01:05:57.317Z,14.91
2018-09-15T01:06:57.507Z,14.92
2018-09-15T01:07:57.678Z,14.94
2018-09-15T01:08:57.877Z,14.92
2018-09-15T01:09:58.057Z,14.92
2018-09-15T01:10:58.247Z,14.94
2018-09-15T01:11:58.421Z,14.92
2018-09-15T01:12:58.595Z,14.88
2018-09-15T01:13:58.844Z,14.99
2018-09-15T01:14:58.955Z,14.96
2018-09-15T01:15:59.133Z,14.77
2018-09-15T01:16:59.327Z,14.78
2018-09-15T01:17:59.501Z,14.82
2018-09-15T01:18:59.675Z,14.60
2018-09-15T01:19:59.891Z,14.63
2018-09-15T01:21:00.036Z,14.63
2018-09-15T01:22:00.211Z,14.63
2018-09-15T01:23:00.386Z,14.78
2018-09-15T01:24:00.555Z,14.58
2018-09-15T01:25:00.735Z,14.54
2018-09-15T01:26:00.939Z,14.55
2018-09-15T01:27:01.099Z,14.54
2018-09-15T01:28:01.282Z,14.59
2018-09-15T01:29:01.451Z,14.60
2018-09-15T01:30:01.631Z,14.58
2018-09-15T01:31:01.805Z,14.58
2018-09-15T01:32:01.986Z,14.60
2018-09-15T01:33:02.166Z,14.50
2018-09-15T01:34:02.333Z,14.48
2018-09-15T01:35:02.509Z,14.41
2018-09-15T01:36:02.676Z,14.50
2018-09-15T01:37:02.856Z,14.47
2018-09-15T01:38:03.036Z,14.43
2018-09-15T01:39:03.224Z,14.45
2018-09-15T01:40:03.398Z,14.44
2018-09-15T01:41:03.569Z,14.48
2018-09-15T01:42:03.744Z,14.48
2018-09-15T01:43:03.920Z,14.47
2018-09-15T01:44:04.171Z,14.44
2018-09-15T01:45:04.285Z,14.41
2018-09-15T01:46:04.465Z,14.35
2018-09-15T01:47:04.644Z,14.25
2018-09-15T01:48:04.825Z,14.26
2018-09-15T01:49:05.065Z,14.28
2018-09-15T01:50:05.117Z,14.29
2018-09-15T01:51:05.294Z,14.23
2018-09-15T01:52:05.477Z,14.26
2018-09-15T01:53:05.650Z,14.17
2018-09-15T01:54:05.824Z,14.11
2018-09-15T01:55:06.013Z,14.17
2018-09-15T01:56:06.180Z,14.23
2018-09-15T01:57:06.357Z,14.12
2018-09-15T01:58:06.535Z,14.04
2018-09-15T01:59:06.716Z,14.11
2018-09-15T02:00:06.894Z,14.05
2018-09-15T02:01:07.070Z,14.07
2018-09-15T02:02:07.287Z,14.00
2018-09-15T02:03:07.460Z,14.04
2018-09-15T02:04:07.635Z,14.03
2018-09-15T02:05:07.814Z,13.89
2018-09-15T02:06:07.987Z,13.77
2018-09-15T02:07:08.165Z,13.78
2018-09-15T02:08:08.340Z,13.71
2018-09-15T02:09:08.523Z,13.75
2018-09-15T02:10:08.704Z,13.57
2018-09-15T02:11:08.883Z,13.60
2018-09-15T02:12:09.069Z,13.62
2018-09-15T02:13:09.242Z,13.57
2018-09-15T02:14:09.421Z,13.50
2018-09-15T02:15:09.602Z,13.37
2018-09-15T02:16:09.775Z,13.44
2018-09-15T02:17:09.960Z,13.38
2018-09-15T02:18:10.142Z,13.30
2018-09-15T02:19:10.322Z,13.31
2018-09-15T02:20:10.505Z,13.19
2018-09-15T02:21:10.678Z,13.28
2018-09-15T02:22:10.857Z,13.20
2018-09-15T02:23:11.030Z,13.16
2018-09-15T02:24:11.209Z,13.13
2018-09-15T02:25:11.390Z,13.18
2018-09-15T02:26:11.573Z,13.16
2018-09-15T02:27:11.746Z,13.12
2018-09-15T02:28:11.916Z,13.08
2018-09-15T02:29:12.093Z,13.04
2018-09-15T02:30:12.269Z,13.11
2018-09-15T02:31:12.447Z,13.19
2018-09-15T02:32:12.622Z,13.18
2018-09-15T02:33:12.802Z,13.19
2018-09-15T02:34:12.977Z,13.15
2018-09-15T02:35:13.148Z,13.18
2018-09-15T02:36:13.320Z,13.16
2018-09-15T02:37:13.501Z,13.20
2018-09-15T02:38:13.688Z,13.30
2018-09-15T02:39:13.868Z,13.28
2018-09-15T02:40:14.044Z,13.23
2018-09-15T02:41:14.220Z,13.23
2018-09-15T02:42:14.402Z,13.27
2018-09-15T02:43:14.572Z,13.35
2018-09-15T02:44:14.745Z,13.38
2018-09-15T02:45:14.927Z,13.22
2018-09-15T02:46:15.097Z,13.25
2018-09-15T02:47:15.281Z,13.39
2018-09-15T02:48:15.458Z,13.35
2018-09-15T02:49:15.638Z,13.37
2018-09-15T02:50:15.820Z,13.52
2018-09-15T02:51:16.009Z,13.54
2018-09-15T02:52:16.185Z,13.37
2018-09-15T02:53:16.355Z,13.50
2018-09-15T02:54:16.536Z,13.54
2018-09-15T02:55:16.710Z,13.50
2018-09-15T02:56:16.879Z,13.54
2018-09-15T02:57:17.056Z,13.49
2018-09-15T02:58:17.233Z,13.54
2018-09-15T02:59:17.405Z,13.54
2018-09-15T03:00:17.576Z,13.59
2018-09-15T03:01:17.753Z,13.65
2018-09-15T03:02:17.935Z,13.56
2018-09-15T03:03:18.109Z,13.62
2018-09-15T03:04:18.291Z,13.62
2018-09-15T03:05:18.477Z,13.60
2018-09-15T03:06:18.651Z,13.59
2018-09-15T03:07:18.828Z,13.60
2018-09-15T03:08:19.006Z,13.62
2018-09-15T03:09:19.181Z,13.71
2018-09-15T03:10:19.354Z,13.54
2018-09-15T03:11:19.526Z,13.50
2018-09-15T03:12:19.696Z,13.47
2018-09-15T03:13:19.878Z,13.52
2018-09-15T03:14:20.049Z,13.49
2018-09-15T03:15:20.222Z,13.56
2018-09-15T03:16:20.395Z,13.33
2018-09-15T03:17:20.566Z,13.50
2018-09-15T03:18:20.748Z,13.50
2018-09-15T03:19:20.925Z,13.42
2018-09-15T03:20:21.102Z,13.44
2018-09-15T03:21:21.271Z,13.39
2018-09-15T03:22:21.455Z,13.41
2018-09-15T03:23:21.632Z,13.37
2018-09-15T03:24:21.811Z,13.20
2018-09-15T03:25:21.994Z,13.38
2018-09-15T03:26:22.169Z,13.18
2018-09-15T03:27:22.357Z,13.20
2018-09-15T03:28:22.539Z,13.33
2018-09-15T03:29:22.715Z,13.33
2018-09-15T03:30:22.888Z,13.15
2018-09-15T03:31:23.094Z,13.13
2018-09-15T03:32:23.255Z,13.13
2018-09-15T03:33:23.421Z,13.03
2018-09-15T03:34:23.595Z,12.87
2018-09-15T03:35:23.774Z,12.98
2018-09-15T03:36:23.949Z,12.97
2018-09-15T03:37:24.126Z,12.93
2018-09-15T03:38:24.309Z,12.93
2018-09-15T03:39:24.491Z,12.80
2018-09-15T03:40:24.676Z,12.82
2018-09-15T03:41:24.887Z,12.80
2018-09-15T03:42:25.043Z,12.62
2018-09-15T03:43:25.222Z,12.60
2018-09-15T03:44:25.410Z,12.62
2018-09-15T03:45:25.594Z,12.57
2018-09-15T03:46:25.779Z,12.57
2018-09-15T03:47:25.944Z,12.46
2018-09-15T03:48:26.129Z,12.50
2018-09-15T03:49:26.311Z,12.39
2018-09-15T03:50:26.495Z,12.42
2018-09-15T03:51:26.674Z,12.31
2018-09-15T03:52:26.853Z,12.47
2018-09-15T03:53:27.041Z,12.43
2018-09-15T03:54:27.218Z,12.47
2018-09-15T03:55:27.399Z,12.42
2018-09-15T03:56:27.577Z,12.49
2018-09-15T03:57:27.755Z,12.43
2018-09-15T03:58:27.935Z,12.45
2018-09-15T03:59:28.116Z,12.40
2018-09-15T04:00:28.291Z,12.45
2018-09-15T04:01:28.460Z,12.40
2018-09-15T04:02:28.641Z,12.25
2018-09-15T04:03:28.817Z,12.21
2018-09-15T04:04:28.991Z,12.29
2018-09-15T04:05:29.172Z,12.28
2018-09-15T04:06:29.343Z,12.21
2018-09-15T04:07:29.513Z,12.10
2018-09-15T04:08:29.694Z,12.18
2018-09-15T04:09:29.868Z,12.21
2018-09-15T04:10:30.055Z,12.22
2018-09-15T04:11:30.222Z,12.21
2018-09-15T04:12:30.408Z,12.28
2018-09-15T04:13:30.582Z,12.24
2018-09-15T04:14:30.769Z,12.15
2018-09-15T04:15:30.945Z,12.18
2018-09-15T04:16:31.117Z,12.02
2018-09-15T04:17:31.303Z,12.03
2018-09-15T04:18:31.477Z,12.07
2018-09-15T04:19:31.659Z,12.04
2018-09-15T04:20:31.860Z,12.00
2018-09-15T04:21:32.041Z,12.09
2018-09-15T04:22:32.240Z,11.99
2018-09-15T04:23:32.422Z,11.87
2018-09-15T04:24:32.605Z,11.88
2018-09-15T04:25:32.804Z,11.84
2018-09-15T04:26:32.973Z,11.83
2018-09-15T04:27:33.160Z,11.83
2018-09-15T04:28:33.370Z,11.70
2018-09-15T04:29:33.520Z,11.78
2018-09-15T04:30:33.697Z,11.73
2018-09-15T04:31:33.886Z,11.80
2018-09-15T04:32:34.062Z,11.81
2018-09-15T04:33:34.314Z,11.88
2018-09-15T04:34:34.381Z,11.84
2018-09-15T04:35:34.576Z,11.84
2018-09-15T04:36:34.733Z,11.88
2018-09-15T04:37:34.920Z,11.88
2018-09-15T04:38:35.106Z,11.87
2018-09-15T04:39:35.275Z,11.83
2018-09-15T04:40:35.447Z,11.81
2018-09-15T04:41:35.649Z,11.83
2018-09-15T04:42:35.799Z,11.87
2018-09-15T04:43:35.979Z,11.88
2018-09-15T04:44:36.174Z,11.97
2018-09-15T04:45:36.353Z,11.83
2018-09-15T04:46:36.538Z,11.88
2018-09-15T04:47:36.721Z,11.95
2018-09-15T04:48:36.899Z,11.99
2018-09-15T04:49:37.071Z,11.90
2018-09-15T04:50:37.249Z,12.00
2018-09-15T04:51:37.430Z,11.88
2018-09-15T04:52:37.670Z,11.84
2018-09-15T04:53:37.788Z,11.80
2018-09-15T04:54:37.983Z,11.94
2018-09-15T04:55:38.157Z,11.88
2018-09-15T04:56:38.352Z,11.88
2018-09-15T04:57:38.537Z,11.86
2018-09-15T04:58:38.747Z,11.68
2018-09-15T04:59:38.893Z,11.77
2018-09-15T05:00:39.083Z,11.68
2018-09-15T05:01:39.262Z,11.75
2018-09-15T05:02:39.443Z,11.68
2018-09-15T05:03:39.635Z,11.65
2018-09-15T05:04:39.829Z,11.75
2018-09-15T05:05:40.014Z,11.72
2018-09-15T05:06:40.378Z,11.75
2018-09-15T05:07:46.543Z,11.73
2018-09-15T05:08:44.278Z,11.73
2018-09-15T05:09:40.664Z,11.60
2018-09-15T05:10:40.863Z,11.63
2018-09-15T05:11:41.068Z,11.60
2018-09-15T05:12:41.273Z,11.57
2018-09-15T05:13:41.420Z,11.54
2018-09-15T05:14:41.782Z,11.62
2018-09-15T05:15:41.810Z,11.65
2018-09-15T05:16:41.987Z,11.70
2018-09-15T05:17:42.174Z,11.70
2018-09-15T05:18:42.364Z,11.70
2018-09-15T05:19:42.562Z,11.75
2018-09-15T05:20:42.720Z,11.70
2018-09-15T05:21:42.898Z,11.69
2018-09-15T05:22:43.073Z,11.63
2018-09-15T05:23:43.264Z,11.54
2018-09-15T05:24:43.438Z,11.57
2018-09-15T05:25:43.616Z,11.43
2018-09-15T05:26:43.792Z,11.50
2018-09-15T05:27:43.972Z,11.55
2018-09-15T05:28:44.534Z,11.62
2018-09-15T05:29:44.246Z,11.70
2018-09-15T05:30:44.423Z,11.72
2018-09-15T05:31:44.611Z,11.75
2018-09-15T05:32:44.788Z,11.68
2018-09-15T05:33:44.960Z,11.63
2018-09-15T05:34:45.131Z,11.57
2018-09-15T05:35:45.309Z,11.69
2018-09-15T05:36:45.505Z,11.72
2018-09-15T05:37:45.679Z,11.70
2018-09-15T05:38:45.862Z,11.88
2018-09-15T05:39:46.047Z,11.84
2018-09-15T05:40:46.210Z,11.86
2018-09-15T05:41:46.388Z,11.81
2018-09-15T05:42:46.567Z,12.02
2018-09-15T05:43:46.736Z,12.03
2018-09-15T05:44:46.912Z,12.02
2018-09-15T05:45:47.089Z,12.04
2018-09-15T05:46:47.269Z,12.03
2018-09-15T05:47:47.446Z,12.06
2018-09-15T05:48:47.649Z,12.03
2018-09-15T05:49:48.028Z,12.06
2018-09-15T05:50:48.017Z,12.12
2018-09-15T05:51:48.198Z,12.06
2018-09-15T05:52:48.376Z,12.10
2018-09-15T05:53:48.559Z,12.06
2018-09-15T05:54:48.731Z,12.02
2018-09-15T05:55:48.954Z,12.17
2018-09-15T05:56:49.124Z,12.06
2018-09-15T05:57:49.294Z,12.13
2018-09-15T05:58:49.469Z,12.29
2018-09-15T05:59:49.652Z,12.37
2018-09-15T06:00:49.833Z,12.46
2018-09-15T06:01:50.100Z,12.42
2018-09-15T06:02:50.184Z,12.49
2018-09-15T06:03:50.362Z,12.55
2018-09-15T06:04:50.544Z,12.54
2018-09-15T06:05:50.759Z,12.67
2018-09-15T06:06:51.009Z,12.78
2018-09-15T06:07:51.116Z,12.72
2018-09-15T06:08:51.291Z,12.70
2018-09-15T06:09:51.470Z,12.94
2018-09-15T06:10:51.651Z,13.00
2018-09-15T06:11:51.838Z,12.94
2018-09-15T06:12:52.017Z,13.01
2018-09-15T06:13:52.202Z,13.09
2018-09-15T06:14:52.364Z,13.08
2018-09-15T06:15:52.539Z,13.18
2018-09-15T06:16:52.720Z,13.28
2018-09-15T06:17:52.897Z,13.28
2018-09-15T06:18:53.077Z,13.33
2018-09-15T06:19:53.267Z,13.28
2018-09-15T06:20:53.447Z,13.42
2018-09-15T06:21:53.630Z,13.70
2018-09-15T06:22:53.805Z,14.07
2018-09-15T06:23:53.986Z,14.43
2018-09-15T06:24:54.157Z,14.85
2018-09-15T06:25:54.337Z,15.31
2018-09-15T06:26:54.520Z,15.65
2018-09-15T06:27:54.693Z,16.33
2018-09-15T06:28:54.874Z,16.68
2018-09-15T06:29:55.051Z,17.02
2018-09-15T06:30:55.442Z,17.41
2018-09-15T06:31:55.360Z,17.74
2018-09-15T06:32:55.542Z,18.22
2018-09-15T06:33:55.717Z,18.40
2018-09-15T06:34:55.894Z,18.88
2018-09-15T06:35:56.075Z,18.96
2018-09-15T06:36:56.246Z,18.86
2018-09-15T06:37:56.430Z,18.56
2018-09-15T06:38:56.624Z,18.45
2018-09-15T06:39:56.831Z,18.47
2018-09-15T06:40:57.003Z,18.92
2018-09-15T06:41:57.178Z,19.30
2018-09-15T06:42:57.353Z,19.69
2018-09-15T06:43:57.529Z,19.91
2018-09-15T06:44:57.704Z,20.09
2018-09-15T06:45:57.888Z,20.13
2018-09-15T06:46:58.079Z,19.74
2018-09-15T06:47:58.258Z,19.39
2018-09-15T06:48:58.430Z,19.44
2018-09-15T06:49:58.613Z,19.56
2018-09-15T06:50:58.802Z,19.66
2018-09-15T06:51:59.005Z,19.81
2018-09-15T06:52:59.190Z,19.85
2018-09-15T06:53:59.376Z,19.63
2018-09-15T06:54:59.557Z,19.67
2018-09-15T06:55:59.735Z,19.86
2018-09-15T06:56:59.917Z,19.96
2018-09-15T06:58:00.098Z,19.92
2018-09-15T06:59:00.273Z,19.82
2018-09-15T07:00:00.450Z,19.58
2018-09-15T07:01:00.749Z,19.69
2018-09-15T07:02:00.803Z,19.99
2018-09-15T07:03:01.021Z,20.04
2018-09-15T07:04:01.256Z,20.29
2018-09-15T07:05:01.401Z,20.43
2018-09-15T07:06:01.599Z,20.44
2018-09-15T07:07:01.808Z,20.58
2018-09-15T07:08:01.951Z,20.70
2018-09-15T07:09:02.123Z,20.62
2018-09-15T07:10:02.308Z,20.59
2018-09-15T07:11:02.494Z,20.50
2018-09-15T07:12:02.673Z,20.28
2018-09-15T07:13:02.919Z,20.32
2018-09-15T07:14:03.028Z,20.47
2018-09-15T07:15:03.217Z,20.59
2018-09-15T07:16:03.428Z,20.63
2018-09-15T07:17:03.616Z,20.90
2018-09-15T07:18:06.553Z,21.18
2018-09-15T07:19:04.704Z,21.22
2018-09-15T07:20:04.034Z,21.45
2018-09-15T07:21:04.225Z,21.55
2018-09-15T07:22:04.410Z,21.51
2018-09-15T07:23:04.583Z,21.73
2018-09-15T07:24:04.760Z,21.85
2018-09-15T07:25:04.943Z,21.89
2018-09-15T07:26:05.188Z,21.79
2018-09-15T07:27:05.383Z,21.82
2018-09-15T07:28:05.433Z,21.98
2018-09-15T07:29:05.918Z,22.00
2018-09-15T07:30:05.814Z,21.85
2018-09-15T07:31:05.995Z,22.13
2018-09-15T07:32:06.233Z,22.14
2018-09-15T07:33:06.317Z,22.14
2018-09-15T07:34:06.539Z,22.28
2018-09-15T07:35:08.007Z,22.45
2018-09-15T07:36:06.845Z,22.23
2018-09-15T07:37:07.035Z,22.33
2018-09-15T07:38:07.209Z,22.53
2018-09-15T07:39:08.431Z,22.53
2018-09-15T07:40:08.566Z,22.65
2018-09-15T07:41:08.957Z,22.68
2018-09-15T07:42:08.908Z,22.96
2018-09-15T07:43:08.788Z,23.00
2018-09-15T07:44:10.770Z,23.10
2018-09-15T07:45:08.569Z,23.00
2018-09-15T07:46:09.158Z,22.96
2018-09-15T07:47:09.369Z,23.10
2018-09-15T07:48:09.214Z,23.00
2018-09-15T07:49:09.439Z,23.37
2018-09-15T07:50:09.572Z,23.59
2018-09-15T07:51:12.547Z,23.83
2018-09-15T07:52:12.055Z,24.06
2018-09-15T07:53:10.084Z,24.13
2018-09-15T07:54:10.406Z,24.28
2018-09-15T07:55:10.466Z,24.30
2018-09-15T07:56:10.679Z,24.42
2018-09-15T07:57:10.868Z,24.35
2018-09-15T07:58:11.049Z,24.57
2018-09-15T07:59:11.229Z,24.32
2018-09-15T08:00:11.427Z,24.45
2018-09-15T08:01:11.769Z,24.51
2018-09-15T08:02:11.797Z,24.50
2018-09-15T08:03:11.969Z,24.60
2018-09-15T08:04:12.166Z,24.61
2018-09-15T08:05:12.349Z,24.58
2018-09-15T08:06:12.535Z,24.58
2018-09-15T08:07:12.721Z,23.71
2018-09-15T08:08:12.900Z,23.84
2018-09-15T08:09:13.077Z,23.96
2018-09-15T08:10:13.273Z,23.98
2018-09-15T08:11:13.452Z,24.06
2018-09-15T08:12:13.782Z,24.33
2018-09-15T08:13:13.764Z,24.60
2018-09-15T08:14:13.947Z,24.66
2018-09-15T08:15:15.335Z,24.78
2018-09-15T08:16:14.356Z,24.99
2018-09-15T08:17:14.525Z,25.11
2018-09-15T08:18:14.707Z,25.43
2018-09-15T08:19:14.889Z,25.63
2018-09-15T08:20:15.070Z,25.55
2018-09-15T08:21:15.421Z,25.68
2018-09-15T08:22:15.496Z,26.02
2018-09-15T08:23:15.682Z,26.18
2018-09-15T08:24:15.860Z,26.22
2018-09-15T08:25:17.668Z,26.06
2018-09-15T08:26:17.795Z,26.22
2018-09-15T08:27:17.659Z,26.22
2018-09-15T08:28:17.020Z,26.16
2018-09-15T08:29:20.035Z,26.00
2018-09-15T08:30:16.789Z,25.91
2018-09-15T08:31:16.981Z,25.69
2018-09-15T08:32:17.159Z,25.81
2018-09-15T08:33:17.342Z,25.54
2018-09-15T08:34:17.537Z,25.17
2018-09-15T08:35:17.708Z,24.84
2018-09-15T08:36:17.891Z,24.48
2018-09-15T08:37:18.095Z,24.36
2018-09-15T08:38:18.663Z,24.26
2018-09-15T08:39:18.474Z,24.01
2018-09-15T08:40:18.650Z,23.88
2018-09-15T08:41:18.841Z,23.98
2018-09-15T08:42:19.011Z,24.03
2018-09-15T08:43:19.201Z,24.28
2018-09-15T08:44:19.392Z,24.26
2018-09-15T08:45:19.566Z,23.84
2018-09-15T08:46:20.007Z,23.69
2018-09-15T08:47:19.846Z,23.48
2018-09-15T08:48:20.085Z,23.31
2018-09-15T08:49:20.205Z,23.62
2018-09-15T08:50:20.385Z,23.34
2018-09-15T08:51:20.773Z,23.31
2018-09-15T08:52:20.912Z,23.27
2018-09-15T08:53:21.150Z,23.39
2018-09-15T08:54:21.289Z,23.62
2018-09-15T08:55:21.518Z,23.47
2018-09-15T08:56:21.658Z,23.61
2018-09-15T08:57:21.897Z,23.65
2018-09-15T08:58:21.835Z,23.73
2018-09-15T08:59:22.153Z,23.51
2018-09-15T09:00:22.205Z,23.73
2018-09-15T09:01:22.384Z,24.13
2018-09-15T09:02:22.571Z,24.77
2018-09-15T09:03:22.744Z,25.28
2018-09-15T09:04:22.944Z,25.87
2018-09-15T09:05:23.116Z,26.25
2018-09-15T09:06:23.292Z,26.68
2018-09-15T09:07:23.476Z,26.88
2018-09-15T09:08:23.674Z,27.26
2018-09-15T09:09:23.861Z,27.45
2018-09-15T09:10:24.106Z,27.77
2018-09-15T09:11:24.244Z,28.11
2018-09-15T09:12:24.457Z,28.32
2018-09-15T09:13:24.637Z,28.39
2018-09-15T09:14:24.813Z,28.37
2018-09-15T09:15:25.459Z,28.38
2018-09-15T09:16:25.356Z,28.37
2018-09-15T09:17:25.404Z,28.86
2018-09-15T09:18:25.607Z,29.32
2018-09-15T09:19:25.816Z,29.36
2018-09-15T09:20:25.997Z,29.27
2018-09-15T09:21:26.200Z,29.36
2018-09-15T09:22:31.603Z,29.35
2018-09-15T09:23:26.564Z,29.41
2018-09-15T09:24:28.348Z,29.49
2018-09-15T09:25:26.946Z,29.54
2018-09-15T09:26:27.174Z,29.63
2018-09-15T09:27:27.347Z,29.84
2018-09-15T09:28:27.587Z,29.50
2018-09-15T09:29:27.677Z,29.65
2018-09-15T09:30:27.880Z,29.65
2018-09-15T09:31:28.067Z,29.27
2018-09-15T09:32:28.306Z,29.66
2018-09-15T09:33:28.450Z,29.75
2018-09-15T09:34:28.858Z,29.90
2018-09-15T09:35:28.868Z,29.86
2018-09-15T09:36:29.066Z,29.72
2018-09-15T09:37:29.271Z,29.72
2018-09-15T09:38:29.450Z,29.19
2018-09-15T09:39:29.655Z,29.45
2018-09-15T09:40:29.853Z,29.50
2018-09-15T09:41:30.051Z,29.84
2018-09-15T09:42:30.202Z,30.05
2018-09-15T09:43:30.399Z,29.39
2018-09-15T09:44:30.592Z,29.50
2018-09-15T09:45:30.789Z,29.87
2018-09-15T09:46:30.965Z,30.12
2018-09-15T09:47:31.170Z,30.31
2018-09-15T09:48:31.379Z,30.72
2018-09-15T09:49:31.583Z,30.70
2018-09-15T09:50:31.778Z,31.05
2018-09-15T09:51:31.955Z,31.31
2018-09-15T09:52:32.155Z,31.40
2018-09-15T09:53:32.355Z,31.54
2018-09-15T09:54:32.552Z,31.29
2018-09-15T09:55:32.725Z,31.59
2018-09-15T09:56:32.953Z,31.90
2018-09-15T09:57:33.157Z,32.04
2018-09-15T09:58:34.549Z,32.45
2018-09-15T09:59:33.550Z,32.67
2018-09-15T10:00:33.743Z,32.30
2018-09-15T10:01:33.954Z,32.67
2018-09-15T10:02:34.139Z,32.77
2018-09-15T10:03:34.340Z,32.00
2018-09-15T10:04:34.539Z,31.49
2018-09-15T10:05:34.729Z,31.44
2018-09-15T10:06:34.907Z,32.18
2018-09-15T10:07:35.101Z,32.68
2018-09-15T10:08:35.291Z,32.56
2018-09-15T10:09:35.494Z,33.01
2018-09-15T10:10:35.670Z,33.40
2018-09-15T10:11:35.862Z,33.80
2018-09-15T10:12:36.063Z,33.77
2018-09-15T10:13:36.254Z,32.31
2018-09-15T10:14:36.451Z,31.02
2018-09-15T10:15:36.639Z,29.84
2018-09-15T10:16:36.837Z,29.61
2018-09-15T10:17:37.029Z,29.23
2018-09-15T10:18:37.214Z,29.10
2018-09-15T10:19:37.404Z,30.28
2018-09-15T10:20:37.600Z,30.73
2018-09-15T10:21:37.890Z,31.36
2018-09-15T10:22:37.985Z,32.16
2018-09-15T10:23:38.172Z,32.45
2018-09-15T10:24:38.359Z,32.70
2018-09-15T10:25:38.555Z,33.05
2018-09-15T10:26:38.747Z,33.37
2018-09-15T10:27:38.940Z,33.67
2018-09-15T10:28:39.129Z,33.96
2018-09-15T10:29:39.320Z,33.61
2018-09-15T10:30:39.529Z,34.11
2018-09-15T10:31:39.726Z,33.73
2018-09-15T10:32:39.909Z,33.83
2018-09-15T10:33:40.092Z,32.73
2018-09-15T10:34:40.273Z,31.34
2018-09-15T10:35:40.466Z,30.47
2018-09-15T10:36:40.653Z,30.12
2018-09-15T10:37:40.853Z,31.29
2018-09-15T10:38:41.043Z,32.15
2018-09-15T10:39:41.229Z,31.03
2018-09-15T10:40:41.420Z,30.09
2018-09-15T10:41:41.613Z,29.51
2018-09-15T10:42:41.798Z,28.86
2018-09-15T10:43:41.989Z,28.42
2018-09-15T10:44:42.178Z,28.15
2018-09-15T10:45:42.371Z,29.61
2018-09-15T10:46:42.603Z,30.47
2018-09-15T10:47:42.760Z,31.22
2018-09-15T10:48:42.944Z,31.62
2018-09-15T10:49:43.134Z,32.11
2018-09-15T10:50:43.315Z,32.73
2018-09-15T10:51:43.501Z,32.95
2018-09-15T10:52:43.699Z,33.49
2018-09-15T10:53:43.884Z,34.10
2018-09-15T10:54:44.087Z,34.32
2018-09-15T10:55:44.258Z,34.13
2018-09-15T10:56:44.452Z,34.50
2018-09-15T10:57:44.640Z,33.08
2018-09-15T10:58:44.825Z,32.12
2018-09-15T10:59:45.016Z,32.11
2018-09-15T11:00:45.276Z,31.17
2018-09-15T11:01:45.393Z,30.35
2018-09-15T11:02:45.587Z,31.56
2018-09-15T11:03:45.773Z,32.51
2018-09-15T11:04:45.963Z,33.22
2018-09-15T11:05:46.162Z,33.89
2018-09-15T11:06:46.344Z,34.29
2018-09-15T11:07:46.530Z,34.33
2018-09-15T11:08:46.726Z,34.39
2018-09-15T11:09:46.908Z,33.64
2018-09-15T11:10:47.105Z,34.08
2018-09-15T11:11:47.299Z,34.38
2018-09-15T11:12:47.484Z,34.75
2018-09-15T11:13:47.771Z,35.00
2018-09-15T11:14:47.860Z,35.02
2018-09-15T11:15:48.053Z,35.15
2018-09-15T11:16:48.248Z,34.93
2018-09-15T11:17:48.446Z,34.62
2018-09-15T11:18:48.630Z,34.32
2018-09-15T11:19:48.816Z,34.70
2018-09-15T11:20:49.009Z,34.25
2018-09-15T11:21:49.204Z,34.18
2018-09-15T11:22:49.492Z,33.81
2018-09-15T11:23:49.589Z,33.89
2018-09-15T11:24:49.781Z,32.93
2018-09-15T11:25:49.978Z,32.22
2018-09-15T11:26:50.171Z,31.29
2018-09-15T11:27:50.854Z,30.37
2018-09-15T11:28:50.546Z,29.79
2018-09-15T11:29:50.742Z,29.02
2018-09-15T11:30:50.936Z,28.26
2018-09-15T11:31:51.123Z,27.92
2018-09-15T11:32:51.305Z,27.51
2018-09-15T11:33:51.499Z,27.03
2018-09-15T11:34:52.501Z,26.36
2018-09-15T11:35:52.502Z,26.26
2018-09-15T11:36:52.089Z,26.10
2018-09-15T11:37:52.140Z,25.72
2018-09-15T11:38:52.780Z,25.63
2018-09-15T11:39:52.455Z,25.51
2018-09-15T11:40:52.637Z,25.38
2018-09-15T11:41:52.999Z,25.26
2018-09-15T11:42:53.051Z,25.31
2018-09-15T11:43:53.249Z,25.33
2018-09-15T11:44:53.420Z,25.26
2018-09-15T11:45:53.605Z,25.59
2018-09-15T11:46:53.788Z,25.55
2018-09-15T11:47:54.000Z,25.66
2018-09-15T11:48:54.172Z,25.62
2018-09-15T11:49:54.401Z,25.62
2018-09-15T11:50:54.487Z,26.92
2018-09-15T11:51:54.672Z,28.15
2018-09-15T11:52:54.853Z,29.14
2018-09-15T11:53:55.108Z,29.82
2018-09-15T11:54:55.236Z,29.20
2018-09-15T11:55:55.426Z,28.49
2018-09-15T11:56:55.621Z,27.95
2018-09-15T11:57:55.805Z,27.65
2018-09-15T11:58:56.031Z,27.47
2018-09-15T11:59:56.278Z,27.12
2018-09-15T12:00:56.349Z,27.03
2018-09-15T12:01:57.724Z,26.92
2018-09-15T12:02:56.704Z,26.70
2018-09-15T12:03:56.889Z,27.26
2018-09-15T12:04:57.071Z,27.36
2018-09-15T12:06:00.547Z,27.26
2018-09-15T12:06:57.421Z,27.03
2018-09-15T12:07:57.563Z,26.89
2018-09-15T12:08:57.684Z,26.74
2018-09-15T12:09:57.871Z,26.47
2018-09-15T12:10:58.056Z,26.45
2018-09-15T12:11:58.242Z,26.33
2018-09-15T12:12:58.427Z,26.15
2018-09-15T12:13:58.607Z,25.87
2018-09-15T12:14:58.785Z,25.84
2018-09-15T12:15:58.963Z,25.99
2018-09-15T12:16:59.148Z,25.99
2018-09-15T12:17:59.328Z,26.03
2018-09-15T12:18:59.598Z,25.90
2018-09-15T12:19:59.704Z,25.81
2018-09-15T12:20:59.882Z,25.69
2018-09-15T12:22:00.063Z,25.73
2018-09-15T12:23:00.240Z,25.51
2018-09-15T12:24:00.447Z,25.59
2018-09-15T12:25:00.645Z,25.65
2018-09-15T12:26:00.830Z,25.47
2018-09-15T12:27:01.014Z,25.38
2018-09-15T12:28:01.321Z,25.26
2018-09-15T12:29:01.378Z,25.11
2018-09-15T12:30:01.556Z,25.01
2018-09-15T12:31:01.738Z,25.08
2018-09-15T12:32:01.911Z,24.96
2018-09-15T12:33:02.095Z,25.07
2018-09-15T12:34:02.266Z,25.03
2018-09-15T12:35:02.461Z,25.13
2018-09-15T12:36:02.621Z,25.13
2018-09-15T12:37:02.806Z,25.16
2018-09-15T12:38:03.001Z,25.10
2018-09-15T12:39:03.249Z,25.06
2018-09-15T12:40:03.365Z,25.10
2018-09-15T12:41:03.551Z,25.06
2018-09-15T12:42:03.722Z,25.01
2018-09-15T12:43:03.908Z,24.89
2018-09-15T12:44:04.091Z,24.85
2018-09-15T12:45:04.333Z,24.86
2018-09-15T12:46:04.445Z,24.76
2018-09-15T12:47:04.622Z,24.86
2018-09-15T12:48:04.809Z,24.69
2018-09-15T12:49:05.028Z,24.69
2018-09-15T12:50:05.209Z,24.74
2018-09-15T12:51:05.391Z,24.76
2018-09-15T12:52:05.626Z,25.01
2018-09-15T12:53:05.756Z,24.98
2018-09-15T12:54:05.938Z,25.03
2018-09-15T12:55:06.112Z,25.04